Time;durP1;ratioP1;P1;durP2;ratioP2;P2;SDS_P1;SDS_P2;PMS_P1;PMS_P2;Temp;Humidity;BMP_temperature;BMP_pressure;BME280_temperature;BME280_humidity;BME280_pressure;Samples;Min_cycle;Max_cycle;Signal;HPM_P1;HPM_P2
2023/04/05 00:00:55;;;;;;;13.10;5.00;;;;;;;-0.08;84.51;101961.63;5074080;28;20824;-65
2023/04/05 00:03:22;;;;;;;15.60;3.53;;;;;;;0.00;84.69;101958.81;5073894;28;20884;-65
2023/04/05 00:05:49;;;;;;;9.07;3.20;;;;;;;-0.07;83.66;101956.09;5074128;28;20465;-65
2023/04/05 00:08:22;;;;;;;12.70;3.80;;;;;;;-0.10;84.23;101953.81;5073867;28;20445;-65
2023/04/05 00:10:49;;;;;;;12.70;4.23;;;;;;;-0.07;84.77;101945.44;5073799;28;20521;-65
2023/04/05 00:13:17;;;;;;;15.77;4.37;;;;;;;-0.10;83.75;101958.31;5073800;28;20845;-65
2023/04/05 00:15:44;;;;;;;11.40;3.80;;;;;;;-0.09;84.25;101944.00;5073441;28;21021;-65
2023/04/05 00:18:20;;;;;;;8.63;3.33;;;;;;;-0.11;85.85;101943.38;5073745;28;20451;-65
2023/04/05 00:20:47;;;;;;;9.80;3.47;;;;;;;-0.13;85.71;101942.75;5073437;28;20429;-65
2023/04/05 00:23:15;;;;;;;14.43;4.87;;;;;;;-0.08;85.38;101940.34;5073798;28;20475;-65
2023/04/05 00:25:42;;;;;;;14.37;5.20;;;;;;;-0.07;84.82;101941.97;5073029;28;20519;-65
2023/04/05 00:28:09;;;;;;;15.50;5.10;;;;;;;-0.09;84.13;101944.00;5073681;28;20491;-65
2023/04/05 00:30:37;;;;;;;9.67;3.70;;;;;;;-0.15;83.16;101942.94;5072709;28;20441;-65
2023/04/05 00:33:04;;;;;;;13.60;3.77;;;;;;;-0.09;82.63;101944.00;5073503;28;20563;-65
2023/04/05 00:35:31;;;;;;;11.43;4.40;;;;;;;-0.23;84.44;101945.75;5073387;28;20511;-65
2023/04/05 00:37:57;;;;;;;7.27;2.67;;;;;;;-0.17;83.50;101945.00;5073461;28;20543;-65
2023/04/05 00:40:24;;;;;;;9.10;3.37;;;;;;;-0.33;85.64;101948.78;5073423;28;20522;-65
2023/04/05 00:42:51;;;;;;;9.40;3.10;;;;;;;-0.38;86.39;101948.53;5073421;28;20540;-65
2023/04/05 00:45:18;;;;;;;14.20;4.00;;;;;;;-0.27;86.07;101941.84;5073262;28;20545;-65
2023/04/05 00:47:46;;;;;;;16.03;3.97;;;;;;;-0.18;85.40;101939.84;5073297;28;20523;-65
2023/04/05 00:50:12;;;;;;;11.27;4.00;;;;;;;-0.21;85.42;101940.25;5073301;28;20538;-65
2023/04/05 00:52:40;;;;;;;14.03;4.60;;;;;;;-0.24;85.54;101941.47;5073134;28;20488;-65
2023/04/05 00:55:09;;;;;;;11.83;4.90;;;;;;;-0.41;86.61;101930.28;5073153;28;20804;-64
2023/04/05 00:57:38;;;;;;;11.73;5.47;;;;;;;-0.47;87.02;101936.41;5073201;28;20491;-65
2023/04/05 01:00:08;;;;;;;11.10;4.83;;;;;;;-0.42;86.98;101928.66;5072839;28;20453;-64
2023/04/05 01:02:44;;;;;;;10.37;4.20;;;;;;;-0.40;86.39;101933.75;5073376;28;20429;-65
2023/04/05 01:05:21;;;;;;;9.97;3.93;;;;;;;-0.28;84.91;101930.38;5072826;28;20425;-65
2023/04/05 01:07:53;;;;;;;21.53;5.63;;;;;;;-0.51;85.42;101925.31;5073110;28;20429;-65
2023/04/05 01:10:26;;;;;;;14.90;4.50;;;;;;;-0.47;85.81;101931.06;5072944;28;20445;-65
2023/04/05 01:12:53;;;;;;;9.60;3.80;;;;;;;-0.56;86.52;101921.59;5073091;28;20535;-65
2023/04/05 01:15:19;;;;;;;8.40;2.97;;;;;;;-0.60;86.19;101923.81;5072737;28;20524;-66
2023/04/05 01:17:47;;;;;;;12.90;4.80;;;;;;;-0.64;85.56;101919.91;5072986;28;20452;-65
2023/04/05 01:20:15;;;;;;;10.50;4.20;;;;;;;-0.71;85.25;101926.19;5072977;28;20449;-65
2023/04/05 01:23:36;;;;;;;13.70;4.13;;;;;;;-0.72;85.17;101924.53;5072982;28;20441;-65
2023/04/05 01:26:31;;;;;;;8.20;2.90;;;;;;;-0.76;85.53;101921.44;5026531;28;20481;-66
2023/04/05 01:29:37;;;;;;;7.83;2.47;;;;;;;-0.68;84.66;101923.13;5072945;28;20457;-66
2023/04/05 01:32:11;;;;;;;8.23;2.63;;;;;;;-0.71;84.64;101923.53;5055071;28;20457;-66
2023/04/05 01:34:51;;;;;;;10.43;3.03;;;;;;;-0.66;84.88;101913.97;5072896;28;20460;-64
2023/04/05 01:37:21;;;;;;;6.83;2.90;;;;;;;-0.69;84.34;101924.97;5072499;28;20467;-64
2023/04/05 01:39:49;;;;;;;10.87;3.60;;;;;;;-0.79;84.59;101925.31;5072484;28;20449;-64
2023/04/05 01:42:21;;;;;;;12.10;4.83;;;;;;;-0.87;84.94;101927.28;5074444;28;20488;-63
2023/04/05 01:44:48;;;;;;;10.20;3.23;;;;;;;-0.90;85.59;101919.69;5076475;28;20433;-64
2023/04/05 01:47:16;;;;;;;15.73;3.70;;;;;;;-0.95;85.96;101914.94;5076576;28;20457;-63
2023/04/05 01:49:43;;;;;;;9.13;3.40;;;;;;;-0.93;85.85;101925.38;5076620;28;20441;-63
2023/04/05 01:52:09;;;;;;;9.10;3.40;;;;;;;-1.06;85.22;101920.81;5076572;28;20445;-62
2023/04/05 01:54:36;;;;;;;9.00;3.00;;;;;;;-1.05;85.96;101911.81;5076148;28;20481;-64
2023/04/05 01:57:03;;;;;;;6.57;2.53;;;;;;;-1.01;86.27;101913.06;5076116;28;20467;-61
2023/04/05 01:59:29;;;;;;;9.83;2.73;;;;;;;-1.07;84.90;101914.63;5076296;28;20437;-62
2023/04/05 02:01:56;;;;;;;9.20;3.83;;;;;;;-1.00;84.90;101908.56;5076214;28;20440;-63
2023/04/05 02:04:24;;;;;;;16.53;3.37;;;;;;;-1.00;85.08;101905.91;5076295;28;20969;-63
2023/04/05 02:06:51;;;;;;;9.67;2.70;;;;;;;-1.06;85.05;101907.50;5076354;28;20851;-63
2023/04/05 02:09:18;;;;;;;10.93;2.83;;;;;;;-1.09;86.14;101910.53;5076390;28;20465;-63
2023/04/05 02:11:44;;;;;;;7.83;2.60;;;;;;;-1.10;86.81;101908.91;5076255;28;20445;-63
2023/04/05 02:14:11;;;;;;;8.00;3.60;;;;;;;-1.11;86.98;101913.38;5076133;28;20485;-63
2023/04/05 02:16:37;;;;;;;7.43;2.40;;;;;;;-1.22;87.60;101905.09;5075819;28;20469;-64
2023/04/05 02:19:04;;;;;;;10.50;3.20;;;;;;;-1.17;87.15;101903.50;5076166;28;20480;-64
2023/04/05 02:21:32;;;;;;;12.37;2.87;;;;;;;-1.20;86.81;101905.72;5076118;28;20448;-64
2023/04/05 02:23:59;;;;;;;6.27;2.30;;;;;;;-1.19;86.99;101900.22;5075798;28;20447;-64
2023/04/05 02:26:25;;;;;;;7.80;2.30;;;;;;;-1.25;86.75;101911.59;5075612;28;20583;-63
2023/04/05 02:28:52;;;;;;;9.80;2.60;;;;;;;-1.31;87.06;101897.25;5075928;28;20456;-64
2023/04/05 02:31:19;;;;;;;8.03;3.00;;;;;;;-1.30;87.16;101908.69;5075661;28;20479;-63
2023/04/05 02:33:47;;;;;;;7.40;2.57;;;;;;;-1.29;86.97;101905.84;5075758;28;20572;-63
2023/04/05 02:36:14;;;;;;;7.63;2.87;;;;;;;-1.29;88.38;101905.84;5075730;28;20511;-63
2023/04/05 02:38:42;;;;;;;8.10;2.60;;;;;;;-1.35;89.64;101898.63;5075774;28;20452;-64
2023/04/05 02:41:10;;;;;;;8.00;3.00;;;;;;;-1.23;89.76;101893.66;5075722;28;20906;-63
2023/04/05 02:43:37;;;;;;;19.13;2.70;;;;;;;-1.21;89.88;101894.25;5075660;28;20799;-63
2023/04/05 02:46:04;;;;;;;7.47;2.20;;;;;;;-1.09;89.36;101894.59;5075205;28;20515;-63
2023/04/05 02:48:30;;;;;;;8.20;2.70;;;;;;;-0.96;88.13;101889.38;5075265;28;20950;-63
2023/04/05 02:50:57;;;;;;;10.43;3.77;;;;;;;-0.97;88.08;101886.91;5075461;28;20445;-64
2023/04/05 02:53:23;;;;;;;6.80;2.10;;;;;;;-0.86;87.90;101889.03;5074913;28;20481;-64
2023/04/05 02:55:55;;;;;;;9.53;3.23;;;;;;;-0.75;86.98;101885.88;5075099;28;20540;-64
2023/04/05 02:58:22;;;;;;;8.63;2.70;;;;;;;-0.70;86.66;101883.44;5075456;28;20472;-64
2023/04/05 03:00:50;;;;;;;8.10;3.03;;;;;;;-0.62;86.57;101880.63;5075369;28;20445;-64
2023/04/05 03:03:17;;;;;;;9.77;2.80;;;;;;;-0.66;86.86;101882.03;5075027;28;20469;-64
2023/04/05 03:05:44;;;;;;;10.80;2.70;;;;;;;-0.63;87.43;101878.16;5075089;28;20461;-64
2023/04/05 03:08:17;;;;;;;9.90;2.03;;;;;;;-0.72;88.64;101884.63;5075354;28;20521;-64
2023/04/05 03:10:44;;;;;;;8.83;2.70;;;;;;;-0.72;89.04;101880.13;5075154;28;20430;-64
2023/04/05 03:13:12;;;;;;;8.90;3.20;;;;;;;-0.67;88.84;101879.56;5074681;28;20476;-64
2023/04/05 03:15:39;;;;;;;9.20;2.57;;;;;;;-0.57;88.67;101878.22;5075077;28;20461;-64
2023/04/05 03:18:05;;;;;;;8.13;2.07;;;;;;;-0.46;88.72;101874.16;5075207;28;20445;-64
2023/04/05 03:20:34;;;;;;;12.53;2.97;;;;;;;-0.34;86.64;101882.44;5074903;28;20473;-63
2023/04/05 03:23:00;;;;;;;6.20;1.97;;;;;;;-0.38;86.77;101876.69;5074565;28;20445;-64
2023/04/05 03:25:27;;;;;;;7.00;2.60;;;;;;;-0.30;86.04;101868.53;5074558;28;20481;-64
2023/04/05 03:27:54;;;;;;;6.23;2.20;;;;;;;-0.38;87.75;101863.38;5074876;28;20430;-64
2023/04/05 03:30:22;;;;;;;8.40;3.00;;;;;;;-0.35;87.51;101862.16;5074406;28;20495;-63
2023/04/05 03:32:48;;;;;;;13.40;3.40;;;;;;;-0.24;87.55;101860.78;5074602;28;20433;-64
2023/04/05 03:35:17;;;;;;;10.67;3.00;;;;;;;-0.19;86.29;101864.47;5074578;28;20452;-64
2023/04/05 03:37:44;;;;;;;10.57;3.90;;;;;;;-0.18;85.87;101854.66;5074259;28;20503;-65
2023/04/05 03:40:12;;;;;;;8.40;3.30;;;;;;;-0.30;86.27;101854.41;5074600;28;20444;-64
2023/04/05 03:42:38;;;;;;;9.03;2.93;;;;;;;-0.39;86.66;101852.94;5074202;28;20481;-64
2023/04/05 03:45:06;;;;;;;7.50;2.80;;;;;;;-0.31;86.17;101853.59;5074616;28;20540;-64
2023/04/05 03:47:34;;;;;;;13.27;3.93;;;;;;;-0.25;85.20;101865.28;5074372;28;20437;-65
2023/04/05 03:50:01;;;;;;;7.60;3.17;;;;;;;-0.35;86.37;101855.00;5074315;28;20452;-64
2023/04/05 03:52:28;;;;;;;8.70;2.93;;;;;;;-0.43;88.14;101860.47;5074024;28;20455;-64
2023/04/05 03:54:54;;;;;;;9.50;3.10;;;;;;;-0.46;88.65;101858.19;5074141;28;20486;-65
2023/04/05 03:57:21;;;;;;;8.57;2.80;;;;;;;-0.30;88.05;101849.91;5074152;28;20974;-63
2023/04/05 03:59:48;;;;;;;9.83;3.50;;;;;;;-0.37;88.21;101851.69;5074119;28;20441;-64
2023/04/05 04:02:14;;;;;;;10.00;4.03;;;;;;;-0.41;87.88;101850.44;5074277;28;20449;-63
2023/04/05 04:04:42;;;;;;;10.70;3.73;;;;;;;-0.42;86.64;101848.00;5073828;28;20472;-63
2023/04/05 04:07:09;;;;;;;13.10;4.83;;;;;;;-0.47;86.75;101853.09;5073615;28;21016;-63
2023/04/05 04:09:36;;;;;;;11.20;4.53;;;;;;;-0.43;87.73;101846.34;5074185;28;20463;-65
2023/04/05 04:12:02;;;;;;;17.33;6.00;;;;;;;-0.43;86.95;101847.16;5073925;28;20444;-64
2023/04/05 04:14:29;;;;;;;20.10;5.63;;;;;;;-0.39;86.23;101852.94;5073768;28;20896;-64
2023/04/05 04:16:56;;;;;;;9.77;3.53;;;;;;;-0.39;86.64;101848.44;5073745;28;20462;-64
2023/04/05 04:19:22;;;;;;;10.57;4.70;;;;;;;-0.44;86.70;101845.53;5075108;28;20446;-66
2023/04/05 04:21:51;;;;;;;14.83;6.10;;;;;;;-0.46;87.45;101852.06;5073277;28;20467;-66
2023/04/05 04:24:18;;;;;;;12.93;4.67;;;;;;;-0.37;88.40;101854.34;5073630;28;20438;-66
2023/04/05 04:26:45;;;;;;;14.27;5.57;;;;;;;-0.31;87.47;101852.75;5073132;28;20535;-66
2023/04/05 04:29:15;;;;;;;9.87;4.27;;;;;;;-0.30;87.02;101852.56;5073593;28;20444;-67
2023/04/05 04:31:44;;;;;;;9.10;3.33;;;;;;;-0.46;87.53;101846.75;5073465;28;20437;-66
2023/04/05 04:34:11;;;;;;;12.70;4.50;;;;;;;-0.51;88.55;101850.81;5073428;28;20507;-66
2023/04/05 04:36:38;;;;;;;14.40;3.60;;;;;;;-0.51;88.69;101850.81;5073014;28;21026;-66
2023/04/05 04:39:06;;;;;;;13.87;4.70;;;;;;;-0.60;88.35;101851.97;5073474;28;20449;-66
2023/04/05 04:41:34;;;;;;;11.13;4.27;;;;;;;-0.54;88.54;101855.69;5073046;28;20481;-66
2023/04/05 04:44:02;;;;;;;9.67;4.20;;;;;;;-0.36;87.99;101857.84;5073398;28;20498;-67
2023/04/05 04:46:33;;;;;;;13.77;4.80;;;;;;;-0.23;87.56;101854.41;5072954;28;20990;-69
2023/04/05 04:49:04;;;;;;;13.20;5.30;;;;;;;-0.23;86.94;101857.09;5072989;28;20986;-69
2023/04/05 04:51:31;;;;;;;10.37;4.63;;;;;;;-0.33;88.28;101866.25;5073377;28;20430;-67
2023/04/05 04:53:57;;;;;;;16.00;4.80;;;;;;;-0.32;88.79;101861.75;5072864;28;20487;-67
2023/04/05 04:56:25;;;;;;;11.53;4.50;;;;;;;-0.47;90.56;101858.41;5072923;28;21074;-67
2023/04/05 04:58:54;;;;;;;13.43;5.10;;;;;;;-0.29;89.45;101856.84;5073215;28;20449;-67
2023/04/05 05:01:21;;;;;;;12.57;5.37;;;;;;;-0.26;89.75;101864.47;5072932;28;20823;-66
2023/04/05 05:03:48;;;;;;;13.37;5.37;;;;;;;-0.27;90.02;101857.50;5072929;28;20445;-67
2023/04/05 05:06:16;;;;;;;20.07;7.13;;;;;;;-0.20;90.14;101851.38;5073039;28;20468;-67
2023/04/05 05:08:43;;;;;;;14.53;6.97;;;;;;;-0.06;89.56;101853.06;5073116;28;20441;-66
2023/04/05 05:11:10;;;;;;;17.50;7.30;;;;;;;-0.07;90.33;101854.91;5073041;28;20437;-67
2023/04/05 05:13:38;;;;;;;17.97;7.27;;;;;;;0.01;89.68;101859.25;5072941;28;20441;-67
2023/04/05 05:16:05;;;;;;;13.30;5.83;;;;;;;-0.04;89.68;101856.38;5072401;28;20983;-67
2023/04/05 05:18:32;;;;;;;18.00;5.80;;;;;;;0.07;89.74;101860.28;5072983;28;20488;-67
2023/04/05 05:20:58;;;;;;;13.63;7.30;;;;;;;0.27;88.78;101857.66;5073011;28;20528;-67
2023/04/05 05:23:25;;;;;;;15.60;6.13;;;;;;;0.31;87.41;101858.91;5072700;28;21006;-67
2023/04/05 05:25:57;;;;;;;14.23;6.53;;;;;;;0.18;86.01;101854.38;5072416;28;20564;-67
2023/04/05 05:28:24;;;;;;;13.83;5.87;;;;;;;0.38;86.81;101857.09;5072715;28;20433;-67
2023/04/05 05:30:52;;;;;;;23.00;6.77;;;;;;;0.55;86.44;101861.03;5072714;28;20451;-66
2023/04/05 05:33:19;;;;;;;14.40;6.00;;;;;;;0.43;85.36;101854.63;5072916;28;20449;-67
2023/04/05 05:35:48;;;;;;;17.30;6.30;;;;;;;0.42;86.15;101861.00;5072435;28;21024;-65
2023/04/05 05:38:15;;;;;;;17.37;7.50;;;;;;;0.43;85.51;101862.63;5072534;28;20436;-66
2023/04/05 05:40:42;;;;;;;14.73;5.90;;;;;;;0.56;85.47;101862.66;5073069;28;20457;-66
2023/04/05 05:43:09;;;;;;;14.27;5.67;;;;;;;0.57;84.76;101861.63;5072669;28;20452;-65
2023/04/05 05:45:36;;;;;;;15.90;6.47;;;;;;;0.56;86.84;101857.31;5072723;28;20462;-66
2023/04/05 05:48:04;;;;;;;17.50;6.80;;;;;;;0.69;86.24;101851.19;5072414;28;20499;-66
2023/04/05 05:50:32;;;;;;;18.77;7.00;;;;;;;0.78;86.69;101859.81;5072523;28;20873;-66
2023/04/05 05:52:59;;;;;;;23.30;8.10;;;;;;;0.81;85.25;101854.09;5072237;28;20449;-66
2023/04/05 05:55:25;;;;;;;24.50;8.00;;;;;;;0.91;85.48;101854.47;5072289;28;20869;-66
2023/04/05 05:57:52;;;;;;;14.80;6.50;;;;;;;1.06;84.28;101847.06;5072610;28;20540;-66
2023/04/05 06:00:20;;;;;;;17.50;7.07;;;;;;;1.17;84.24;101849.13;5072548;28;20538;-66
2023/04/05 06:02:46;;;;;;;21.30;6.27;;;;;;;1.27;84.58;101851.38;5072604;28;20487;-66
2023/04/05 06:05:15;;;;;;;16.80;5.30;;;;;;;1.42;83.71;101845.81;5072407;28;20445;-66
2023/04/05 06:07:41;;;;;;;10.03;4.10;;;;;;;1.43;83.34;101850.94;5072430;28;20506;-66
2023/04/05 06:10:09;;;;;;;12.67;3.73;;;;;;;1.57;82.95;101859.72;5072479;28;20532;-66
2023/04/05 06:12:35;;;;;;;14.73;4.43;;;;;;;1.61;83.04;101846.78;5072271;28;20534;-67
2023/04/05 06:15:02;;;;;;;10.20;3.73;;;;;;;1.72;82.76;101848.78;5071987;28;20517;-69
2023/04/05 06:17:29;;;;;;;14.30;4.17;;;;;;;1.85;82.90;101846.06;5072197;28;20543;-70
2023/04/05 06:19:55;;;;;;;8.93;3.30;;;;;;;2.00;82.52;101848.50;5072188;28;20516;-69
2023/04/05 06:22:23;;;;;;;9.13;2.80;;;;;;;2.10;81.89;101846.16;5072424;28;20524;-71
2023/04/05 06:24:50;;;;;;;8.77;2.70;;;;;;;2.22;81.23;101849.00;5072323;28;20445;-67
2023/04/05 06:27:17;;;;;;;9.40;3.07;;;;;;;2.28;81.02;101840.94;5071579;28;20485;-67
2023/04/05 06:29:43;;;;;;;9.37;2.40;;;;;;;2.39;80.65;101843.94;5074585;28;20449;-66
2023/04/05 06:32:10;;;;;;;9.90;3.20;;;;;;;2.40;80.73;101834.91;5075760;28;20429;-67
2023/04/05 06:34:36;;;;;;;12.37;3.63;;;;;;;2.51;79.93;101834.19;5075591;28;20803;-67
2023/04/05 06:37:03;;;;;;;7.83;2.63;;;;;;;2.57;79.06;101836.03;5075726;28;20497;-66
2023/04/05 06:39:31;;;;;;;10.87;2.90;;;;;;;2.60;78.54;101846.28;5075744;28;20551;-67
2023/04/05 06:41:57;;;;;;;9.43;3.30;;;;;;;2.64;79.54;101852.00;5075423;28;20909;-68
2023/04/05 06:44:24;;;;;;;8.83;3.00;;;;;;;2.72;79.88;101855.25;5075387;28;20951;-68
2023/04/05 06:46:51;;;;;;;10.20;3.10;;;;;;;2.74;80.23;101853.16;5075514;28;20469;-68
2023/04/05 06:49:17;;;;;;;8.07;2.60;;;;;;;2.82;79.21;101851.25;5075623;28;20449;-68
2023/04/05 06:51:44;;;;;;;7.97;3.17;;;;;;;2.85;77.35;101856.19;5075638;28;20437;-66
2023/04/05 06:54:10;;;;;;;8.40;2.30;;;;;;;2.68;77.19;101854.03;5075483;28;20441;-67
2023/04/05 06:56:38;;;;;;;8.40;3.13;;;;;;;2.79;77.50;101847.19;5075766;28;20464;-67
2023/04/05 06:59:05;;;;;;;9.30;3.30;;;;;;;2.96;76.97;101852.78;5075478;28;20448;-68
2023/04/05 07:01:32;;;;;;;10.93;2.00;;;;;;;3.02;75.97;101851.94;5075098;28;20437;-68
2023/04/05 07:03:59;;;;;;;7.60;2.03;;;;;;;3.04;74.79;101856.00;5075424;28;20448;-67
2023/04/05 07:06:26;;;;;;;7.10;2.17;;;;;;;3.18;73.35;101856.69;5075696;28;20826;-67
2023/04/05 07:08:52;;;;;;;6.53;1.80;;;;;;;3.23;73.42;101848.00;5075049;28;20445;-67
2023/04/05 07:11:20;;;;;;;6.83;1.90;;;;;;;3.27;71.82;101842.00;5075192;28;20862;-67
2023/04/05 07:13:48;;;;;;;10.33;1.83;;;;;;;3.35;72.02;101842.75;5075292;28;20477;-68
2023/04/05 07:16:14;;;;;;;6.33;1.60;;;;;;;3.45;71.13;101845.72;5075087;28;20568;-67
2023/04/05 07:18:41;;;;;;;5.27;1.57;;;;;;;3.52;71.26;101844.63;5075105;28;20447;-68
2023/04/05 07:21:07;;;;;;;7.77;1.87;;;;;;;3.69;70.83;101844.03;5075475;28;20477;-68
2023/04/05 07:23:34;;;;;;;7.43;1.97;;;;;;;3.80;70.31;101837.91;5074717;28;20528;-68
2023/04/05 07:26:03;;;;;;;5.57;1.53;;;;;;;3.84;69.80;101832.94;5074961;28;20473;-69
2023/04/05 07:28:30;;;;;;;7.67;2.30;;;;;;;3.92;70.21;101838.00;5074960;28;20445;-70
2023/04/05 07:30:58;;;;;;;7.30;2.23;;;;;;;4.07;69.58;101846.44;5074890;28;20495;-69
2023/04/05 07:33:24;;;;;;;8.07;2.27;;;;;;;4.01;68.26;101834.75;5075590;28;20447;-69
2023/04/05 07:35:52;;;;;;;6.13;1.30;;;;;;;4.08;68.77;101841.91;5075017;28;20857;-70
2023/04/05 07:38:19;;;;;;;7.80;1.83;;;;;;;4.14;68.32;101841.81;5074712;28;20447;-68
2023/04/05 07:40:45;;;;;;;11.80;2.40;;;;;;;4.14;68.45;101833.78;5074504;28;20445;-70
2023/04/05 07:43:12;;;;;;;9.23;2.60;;;;;;;4.10;68.53;101837.13;5074627;28;20445;-68
2023/04/05 07:45:38;;;;;;;6.27;1.53;;;;;;;4.14;69.33;101841.81;5074400;28;20534;-67
2023/04/05 07:48:06;;;;;;;5.50;1.57;;;;;;;4.09;68.92;101836.31;5074475;28;20441;-68
2023/04/05 07:50:35;;;;;;;5.63;1.60;;;;;;;4.05;69.25;101840.50;5074141;28;20456;-69
2023/04/05 07:53:01;;;;;;;6.17;1.97;;;;;;;4.02;69.57;101841.75;5074412;28;20465;-68
2023/04/05 07:55:28;;;;;;;9.23;1.80;;;;;;;4.14;68.82;101839.13;5074104;28;20481;-68
2023/04/05 07:57:54;;;;;;;7.57;2.10;;;;;;;4.17;69.36;101833.34;5073983;28;20448;-68
2023/04/05 08:00:22;;;;;;;7.20;2.03;;;;;;;4.20;69.12;101830.16;5073896;28;20964;-68
2023/04/05 08:02:48;;;;;;;5.40;1.50;;;;;;;4.29;69.02;101836.03;5074173;28;20812;-68
2023/04/05 08:05:16;;;;;;;6.50;1.83;;;;;;;4.41;70.02;101833.41;5074091;28;20520;-68
2023/04/05 08:07:43;;;;;;;13.23;1.93;;;;;;;4.44;69.63;101839.13;5074049;28;20528;-68
2023/04/05 08:10:10;;;;;;;5.83;1.70;;;;;;;4.47;68.51;101844.06;5074085;28;20441;-68
2023/04/05 08:12:37;;;;;;;6.80;2.10;;;;;;;4.59;68.28;101851.28;5073978;28;20794;-68
2023/04/05 08:15:04;;;;;;;6.97;1.73;;;;;;;4.65;67.90;101837.78;5073876;28;20481;-68
2023/04/05 08:17:31;;;;;;;5.90;1.63;;;;;;;4.66;69.19;101828.69;5073772;28;20480;-68
2023/04/05 08:19:57;;;;;;;8.10;1.70;;;;;;;4.84;70.37;101833.16;5073730;28;20452;-68
2023/04/05 08:22:28;;;;;;;7.10;2.27;;;;;;;4.93;69.67;101837.13;5073683;28;20464;-68
2023/04/05 08:24:54;;;;;;;9.83;1.83;;;;;;;5.02;69.02;101834.91;5073720;28;20421;-68
2023/04/05 08:27:21;;;;;;;6.00;1.53;;;;;;;5.09;68.90;101837.47;5073204;28;20473;-68
2023/04/05 08:29:47;;;;;;;7.73;2.23;;;;;;;5.18;69.16;101838.75;5073376;28;20430;-69
2023/04/05 08:32:14;;;;;;;7.13;2.10;;;;;;;5.21;68.33;101832.91;5073588;28;20441;-68
2023/04/05 08:34:41;;;;;;;6.47;1.73;;;;;;;5.29;67.68;101832.56;5073453;28;20517;-69
2023/04/05 08:37:07;;;;;;;6.57;2.13;;;;;;;5.25;68.45;101832.22;5073490;28;20549;-69
2023/04/05 08:39:36;;;;;;;8.87;2.43;;;;;;;5.39;69.16;101835.47;5073505;28;20441;-68
2023/04/05 08:42:08;;;;;;;8.20;2.67;;;;;;;5.45;69.21;101833.72;5073436;28;20449;-68
2023/04/05 08:44:37;;;;;;;8.90;2.60;;;;;;;5.42;68.48;101823.44;5073385;28;20428;-68
2023/04/05 08:47:04;;;;;;;8.23;2.27;;;;;;;5.50;68.97;101823.09;5072996;28;20995;-68
2023/04/05 08:49:32;;;;;;;7.03;2.43;;;;;;;5.52;69.52;101826.34;5073060;28;21037;-68
2023/04/05 08:52:00;;;;;;;8.77;2.50;;;;;;;5.63;67.74;101825.53;5072799;28;20503;-68
2023/04/05 08:54:27;;;;;;;7.97;2.60;;;;;;;5.76;67.28;101819.06;5073273;28;20445;-68
2023/04/05 08:56:58;;;;;;;7.43;2.20;;;;;;;5.80;67.92;101828.28;5072787;28;21081;-68
2023/04/05 08:59:26;;;;;;;20.50;3.10;;;;;;;5.80;68.02;101815.66;5073297;28;20433;-68
2023/04/05 09:01:55;;;;;;;8.13;2.10;;;;;;;5.85;68.00;101816.81;5073158;28;20480;-68
2023/04/05 09:04:23;;;;;;;9.77;3.60;;;;;;;5.93;67.03;101813.75;5073148;28;20469;-68
2023/04/05 09:06:51;;;;;;;5.90;1.80;;;;;;;6.14;68.12;101815.78;5073068;28;20467;-68
2023/04/05 09:09:20;;;;;;;7.30;2.60;;;;;;;6.35;69.15;101819.66;5072837;28;20888;-68
2023/04/05 09:11:46;;;;;;;10.13;2.73;;;;;;;6.53;67.98;101805.16;5073085;28;20441;-68
2023/04/05 09:14:16;;;;;;;9.93;2.53;;;;;;;6.65;66.20;101814.00;5072806;28;20455;-68
2023/04/05 09:16:43;;;;;;;9.03;2.40;;;;;;;6.68;65.96;101810.78;5072613;28;20496;-69
2023/04/05 09:19:10;;;;;;;6.80;2.20;;;;;;;6.67;65.11;101817.25;5073024;28;20441;-69
2023/04/05 09:21:59;;;;;;;12.63;2.47;;;;;;;6.75;65.64;101805.25;5073019;28;20479;-68
2023/04/05 09:24:38;;;;;;;9.03;2.87;;;;;;;6.70;63.67;101814.06;5072638;28;20444;-68
2023/04/05 09:27:07;;;;;;;7.10;2.63;;;;;;;6.93;64.36;101821.16;5072453;28;21049;-68
2023/04/05 09:29:35;;;;;;;8.77;2.73;;;;;;;7.03;63.74;101817.78;5072884;28;20445;-68
2023/04/05 09:32:03;;;;;;;8.70;2.70;;;;;;;7.09;62.38;101811.44;5072847;28;20441;-68
2023/04/05 09:34:31;;;;;;;7.30;1.77;;;;;;;7.18;61.32;101812.66;5072585;28;20942;-68
2023/04/05 09:36:58;;;;;;;7.70;2.23;;;;;;;7.26;61.01;101808.69;5072760;28;20485;-68
2023/04/05 09:39:29;;;;;;;8.67;2.40;;;;;;;7.18;58.62;101815.34;5072671;28;20480;-68
2023/04/05 09:42:05;;;;;;;7.70;2.40;;;;;;;7.22;59.03;101810.28;5072542;28;20801;-68
2023/04/05 09:44:55;;;;;;;10.50;2.77;;;;;;;7.37;60.45;101807.78;5072507;28;20975;-68
2023/04/05 09:47:23;;;;;;;8.80;3.20;;;;;;;7.54;58.51;101805.03;5072671;28;20469;-68
2023/04/05 09:49:50;;;;;;;9.23;2.90;;;;;;;7.65;57.67;101804.09;5072727;28;20445;-68
2023/04/05 09:52:18;;;;;;;7.90;2.27;;;;;;;7.76;54.50;101808.56;5072742;28;20452;-68
2023/04/05 09:54:45;;;;;;;7.30;2.20;;;;;;;7.80;55.13;101803.47;5072430;28;20448;-68
2023/04/05 09:57:12;;;;;;;9.23;2.53;;;;;;;7.88;55.36;101800.34;5072599;28;20923;-69
2023/04/05 09:59:39;;;;;;;12.20;2.50;;;;;;;8.03;54.71;101808.59;5072707;28;20437;-69
2023/04/05 10:02:08;;;;;;;7.33;2.17;;;;;;;8.18;54.29;101797.13;5072366;28;20872;-68
2023/04/05 10:04:39;;;;;;;10.10;2.60;;;;;;;8.28;53.29;101808.03;5075006;28;20804;-68
2023/04/05 10:07:07;;;;;;;8.67;2.00;;;;;;;8.12;52.53;101802.72;5076129;28;20459;-68
2023/04/05 10:09:33;;;;;;;6.43;2.20;;;;;;;8.00;53.23;101805.56;5076312;28;20437;-69
2023/04/05 10:12:02;;;;;;;8.63;2.20;;;;;;;7.92;53.91;101808.72;5076035;28;20957;-68
2023/04/05 10:14:29;;;;;;;7.70;2.50;;;;;;;8.02;53.66;101792.66;5076228;28;20532;-68
2023/04/05 10:17:04;;;;;;;6.83;2.20;;;;;;;8.38;55.26;101784.94;5076119;28;20484;-69
2023/04/05 10:19:50;;;;;;;9.40;3.23;;;;;;;8.42;52.54;101799.56;5085169;22;20429;-77
2023/04/05 10:22:29;;;;;;;8.13;2.10;;;;;;;8.60;52.16;101793.75;5076509;28;20500;-77
2023/04/05 10:25:04;;;;;;;9.13;1.97;;;;;;;8.70;52.29;101796.53;5076609;28;20494;-77
2023/04/05 10:27:35;;;;;;;8.10;2.30;;;;;;;8.78;52.60;101796.06;5077539;28;20432;-77
2023/04/05 10:30:07;;;;;;;9.30;2.90;;;;;;;8.93;52.36;101794.53;5086560;28;20505;-78
2023/04/05 10:33:00;;;;;;;6.53;2.13;;;;;;;8.85;52.50;101793.13;5086469;28;20445;-78
2023/04/05 10:35:40;;;;;;;6.93;1.90;;;;;;;8.98;52.23;101789.16;5088666;28;20477;-78
2023/04/05 10:38:17;;;;;;;6.53;1.70;;;;;;;9.04;51.61;101790.84;5088692;28;20434;-78
2023/04/05 10:40:48;;;;;;;6.40;1.97;;;;;;;8.64;50.50;101794.06;5087391;28;20540;-78
2023/04/05 10:43:19;;;;;;;6.47;1.67;;;;;;;8.54;51.25;101792.06;5088870;28;20829;-78
2023/04/05 10:45:49;;;;;;;6.70;2.13;;;;;;;8.31;51.55;101788.59;5087323;28;20414;-77
2023/04/05 10:48:34;;;;;;;8.23;1.93;;;;;;;8.26;52.08;101793.16;5087533;28;20430;-78
2023/04/05 10:51:03;;;;;;;7.93;1.93;;;;;;;8.22;52.80;101787.44;5085931;28;20426;-78
2023/04/05 10:53:31;;;;;;;9.43;2.20;;;;;;;8.05;53.06;101792.13;5086617;28;20493;-78
2023/04/05 10:55:58;;;;;;;8.23;1.80;;;;;;;7.97;53.04;101797.97;5086097;28;20487;-78
2023/04/05 10:58:26;;;;;;;9.50;2.10;;;;;;;7.92;53.37;101782.53;5085365;28;20434;-77
2023/04/05 11:00:55;;;;;;;8.40;2.87;;;;;;;7.84;53.35;101791.94;5085892;28;20441;-77
2023/04/05 11:03:50;;;;;;;7.93;1.93;;;;;;;7.82;52.94;101793.22;5084974;28;20440;-78
2023/04/05 11:06:31;;;;;;;7.80;2.40;;;;;;;7.67;51.80;101787.69;5083424;28;20536;-78
2023/04/05 11:09:01;;;;;;;8.80;1.63;;;;;;;7.65;51.89;101785.22;5083316;28;20472;-79
2023/04/05 11:11:38;;;;;;;9.17;1.43;;;;;;;7.70;52.47;101782.59;5084173;28;20438;-77
2023/04/05 11:14:18;;;;;;;7.37;1.43;;;;;;;7.89;51.91;101782.25;5080964;28;20439;-77
2023/04/05 11:16:47;;;;;;;7.27;1.73;;;;;;;8.09;52.24;101785.16;5082922;28;20469;-77
2023/04/05 11:19:27;;;;;;;7.03;1.53;;;;;;;8.47;52.17;101778.81;5083003;28;20450;-78
2023/04/05 11:29:13;;;;;;;10.30;2.10;;;;;;;9.30;49.10;101776.41;5082112;28;20540;-78
2023/04/05 11:32:23;;;;;;;7.93;2.50;;;;;;;9.40;48.97;101770.22;5079912;28;20441;-77
2023/04/05 11:34:59;;;;;;;7.43;2.00;;;;;;;9.19;48.52;101782.81;5085485;28;20442;-78
2023/04/05 11:37:54;;;;;;;9.70;2.40;;;;;;;8.95;48.59;101773.50;5084690;28;20476;-78
2023/04/05 11:40:28;;;;;;;6.33;1.70;;;;;;;9.03;47.89;101778.38;5088079;28;20489;-78
2023/04/05 11:42:59;;;;;;;7.37;2.00;;;;;;;9.29;48.59;101772.03;5088056;28;20461;-78